Time;durP1;ratioP1;P1;durP2;ratioP2;P2;SDS_P1;SDS_P2;PMS_P1;PMS_P2;Temp;Humidity;BMP_temperature;BMP_pressure;BME280_temperature;BME280_humidity;BME280_pressure;Samples;Min_cycle;Max_cycle;Signal;HPM_P1;HPM_P2
2022/11/19 00:00:26;;;;;;;7.88;6.50;;;;;;;;;;5025392;28;20063;-70
2022/11/19 00:02:55;;;;;;;7.78;6.00;;;;;;;;;;5055748;28;20053;-72
2022/11/19 00:05:21;;;;;;;7.85;6.25;;;;;;;;;;5032663;28;20051;-72
2022/11/19 00:07:47;;;;;;;7.72;6.20;;;;;;;;;;5052730;28;20044;-72
2022/11/19 00:10:13;;;;;;;7.85;6.35;;;;;;;;;;5049183;28;20051;-71
2022/11/19 00:12:54;;;;;;;7.80;6.15;;;;;;;;;;5051704;28;20041;-71
2022/11/19 00:15:21;;;;;;;7.82;6.13;;;;;;;;;;5055354;28;20044;-71
2022/11/19 00:17:47;;;;;;;8.10;6.35;;;;;;;;;;5034261;28;20037;-71
2022/11/19 00:20:13;;;;;;;7.63;6.05;;;;;;;;;;5034085;28;20128;-71
2022/11/19 00:22:42;;;;;;;8.10;6.47;;;;;;;;;;5048542;28;20056;-71
2022/11/19 00:25:09;;;;;;;6.45;5.80;;;;;;;;;;5051026;28;20041;-71
2022/11/19 00:27:35;;;;;;;7.70;5.75;;;;;;;;;;5050838;28;20543;-71
2022/11/19 00:30:01;;;;;;;7.50;5.68;;;;;;;;;;5063909;28;20048;-73
2022/11/19 00:32:27;;;;;;;7.40;5.85;;;;;;;;;;5039443;28;20045;-73
2022/11/19 00:34:53;;;;;;;6.13;5.38;;;;;;;;;;5029610;28;20048;-73
2022/11/19 00:37:19;;;;;;;6.82;5.72;;;;;;;;;;5027401;28;20057;-73
2022/11/19 00:39:45;;;;;;;7.45;6.20;;;;;;;;;;5028628;28;20142;-73
2022/11/19 00:42:11;;;;;;;6.38;5.15;;;;;;;;;;5038666;28;20040;-73
2022/11/19 00:44:37;;;;;;;6.72;5.20;;;;;;;;;;5044680;28;20397;-73
2022/11/19 00:47:03;;;;;;;7.70;5.65;;;;;;;;;;5026549;28;20080;-73
2022/11/19 00:49:29;;;;;;;6.80;5.38;;;;;;;;;;5026767;28;20058;-73
2022/11/19 00:51:55;;;;;;;6.22;5.35;;;;;;;;;;5025007;28;20052;-73
2022/11/19 00:54:21;;;;;;;5.90;4.82;;;;;;;;;;5021645;28;20049;-73
2022/11/19 00:56:47;;;;;;;6.43;5.50;;;;;;;;;;5020149;28;20041;-73
2022/11/19 00:59:13;;;;;;;6.95;5.18;;;;;;;;;;5026488;28;20075;-73
2022/11/19 01:01:39;;;;;;;6.00;5.30;;;;;;;;;;5028166;28;20685;-73
2022/11/19 01:04:05;;;;;;;5.32;4.78;;;;;;;;;;5024934;28;20118;-73
2022/11/19 01:06:31;;;;;;;5.85;4.93;;;;;;;;;;5029699;28;20042;-73
2022/11/19 01:08:58;;;;;;;6.72;5.35;;;;;;;;;;5030053;28;20102;-73
2022/11/19 01:11:25;;;;;;;6.40;5.07;;;;;;;;;;5056609;28;20068;-74
2022/11/19 01:13:51;;;;;;;6.47;5.00;;;;;;;;;;5023537;28;20042;-73
2022/11/19 01:16:21;;;;;;;8.02;4.82;;;;;;;;;;5029953;28;20083;-73
2022/11/19 01:18:47;;;;;;;5.32;4.00;;;;;;;;;;5024710;28;22171;-73
2022/11/19 01:21:13;;;;;;;5.28;4.35;;;;;;;;;;5027606;28;21805;-73
2022/11/19 01:23:40;;;;;;;5.03;4.30;;;;;;;;;;5024739;28;20632;-73
2022/11/19 01:26:07;;;;;;;4.80;4.05;;;;;;;;;;5028025;28;20047;-73
2022/11/19 01:28:33;;;;;;;6.80;3.90;;;;;;;;;;5027832;28;20049;-73
2022/11/19 01:30:59;;;;;;;4.95;3.83;;;;;;;;;;5024014;28;20033;-73
2022/11/19 01:33:25;;;;;;;5.68;4.07;;;;;;;;;;5027937;28;20508;-73
2022/11/19 01:35:59;;;;;;;4.00;3.60;;;;;;;;;;5063218;28;20100;-73
2022/11/19 01:38:25;;;;;;;4.90;4.30;;;;;;;;;;5028845;28;20080;-73
2022/11/19 01:40:51;;;;;;;4.30;3.67;;;;;;;;;;5031121;28;20041;-73
2022/11/19 01:43:17;;;;;;;4.55;3.90;;;;;;;;;;5029089;28;20068;-73
2022/11/19 01:45:47;;;;;;;5.38;4.45;;;;;;;;;;5027479;28;20076;-73
2022/11/19 01:48:24;;;;;;;5.20;4.05;;;;;;;;;;5027881;28;20045;-73
2022/11/19 01:50:52;;;;;;;5.15;4.20;;;;;;;;;;5028798;28;20045;-73
2022/11/19 01:53:19;;;;;;;5.82;4.50;;;;;;;;;;5022611;28;20042;-73
2022/11/19 01:55:46;;;;;;;5.45;4.25;;;;;;;;;;5050917;28;20053;-73
2022/11/19 01:58:14;;;;;;;4.60;4.05;;;;;;;;;;5020589;28;20540;-73
2022/11/19 02:00:41;;;;;;;5.43;4.45;;;;;;;;;;5019191;28;20045;-73
2022/11/19 02:03:10;;;;;;;5.55;4.35;;;;;;;;;;5023589;28;20112;-73
2022/11/19 02:05:37;;;;;;;6.70;3.97;;;;;;;;;;5018521;28;20079;-73
2022/11/19 02:08:05;;;;;;;6.10;4.22;;;;;;;;;;5020248;28;20073;-74
2022/11/19 02:10:46;;;;;;;4.32;3.92;;;;;;;;;;5022448;28;20121;-73
2022/11/19 02:13:24;;;;;;;4.85;4.05;;;;;;;;;;5017798;28;20045;-73
2022/11/19 02:15:57;;;;;;;4.13;3.72;;;;;;;;;;5017389;28;20057;-74
2022/11/19 02:18:45;;;;;;;4.50;3.83;;;;;;;;;;5021945;28;20084;-73
2022/11/19 02:21:27;;;;;;;4.43;4.00;;;;;;;;;;5053384;28;20049;-73
2022/11/19 02:24:08;;;;;;;6.30;4.30;;;;;;;;;;5026993;28;20056;-73
2022/11/19 02:26:37;;;;;;;5.25;4.53;;;;;;;;;;5028355;28;20049;-73
2022/11/19 02:29:15;;;;;;;5.28;4.43;;;;;;;;;;5028221;28;20071;-72
2022/11/19 02:31:48;;;;;;;5.85;4.40;;;;;;;;;;5023004;28;20058;-73
2022/11/19 02:34:16;;;;;;;4.72;4.20;;;;;;;;;;5027807;28;20401;-72
2022/11/19 02:36:56;;;;;;;4.78;4.25;;;;;;;;;;5041751;28;20049;-72
2022/11/19 02:39:25;;;;;;;6.43;4.60;;;;;;;;;;5064380;28;20045;-73
2022/11/19 02:42:17;;;;;;;5.65;4.35;;;;;;;;;;5024943;28;20045;-72
2022/11/19 02:45:01;;;;;;;6.20;4.85;;;;;;;;;;5029682;28;20121;-72
2022/11/19 02:47:27;;;;;;;6.10;4.82;;;;;;;;;;5062419;28;20059;-72
2022/11/19 02:49:55;;;;;;;5.18;4.65;;;;;;;;;;5028520;28;20076;-72
2022/11/19 02:52:21;;;;;;;5.78;5.03;;;;;;;;;;5047735;28;20044;-73
2022/11/19 02:54:47;;;;;;;5.05;4.13;;;;;;;;;;5029314;28;20048;-72
2022/11/19 02:57:14;;;;;;;5.57;4.50;;;;;;;;;;5047713;28;20041;-72
2022/11/19 03:05:34;;;;;;;5.28;4.45;;;;;;;;;;5017267;28;20053;-72
2022/11/19 03:08:01;;;;;;;5.43;4.38;;;;;;;;;;5057142;28;20052;-73
2022/11/19 03:10:29;;;;;;;7.13;5.40;;;;;;;;;;5019893;28;20127;-72
2022/11/19 03:12:55;;;;;;;5.78;4.40;;;;;;;;;;5039728;28;20041;-72
2022/11/19 03:18:39;;;;;;;6.72;5.13;;;;;;;;;;5022152;28;20037;-73
2022/11/19 03:21:07;;;;;;;5.53;4.43;;;;;;;;;;5039198;28;20047;-73
2022/11/19 03:23:33;;;;;;;6.13;4.80;;;;;;;;;;5058876;28;20571;-73
2022/11/19 03:26:19;;;;;;;5.10;4.57;;;;;;;;;;5040725;28;20056;-73
2022/11/19 03:28:46;;;;;;;6.40;5.10;;;;;;;;;;5000451;28;20469;-72
2022/11/19 03:31:13;;;;;;;5.78;5.03;;;;;;;;;;5024622;28;20044;-73
2022/11/19 03:33:41;;;;;;;5.65;4.78;;;;;;;;;;5050838;28;20489;-72
2022/11/19 03:36:10;;;;;;;6.45;5.43;;;;;;;;;;5064902;28;20558;-72
2022/11/19 03:38:40;;;;;;;5.05;4.55;;;;;;;;;;5031916;28;20405;-72
2022/11/19 03:41:06;;;;;;;7.20;5.05;;;;;;;;;;5050654;28;20037;-72
2022/11/19 03:43:35;;;;;;;5.63;4.75;;;;;;;;;;5053268;28;20045;-72
2022/11/19 03:46:02;;;;;;;6.70;5.15;;;;;;;;;;5063034;28;20128;-72
2022/11/19 03:48:29;;;;;;;6.32;5.47;;;;;;;;;;5046868;28;20449;-73
2022/11/19 03:51:05;;;;;;;7.78;5.80;;;;;;;;;;5061296;28;20398;-72
2022/11/19 03:53:31;;;;;;;6.40;5.50;;;;;;;;;;5060788;28;20045;-72
2022/11/19 03:55:59;;;;;;;5.70;4.90;;;;;;;;;;5051025;28;20429;-73
2022/11/19 03:58:26;;;;;;;6.00;5.40;;;;;;;;;;5035436;28;20041;-72
2022/11/19 04:00:55;;;;;;;7.43;5.22;;;;;;;;;;5033337;28;20045;-72
2022/11/19 04:03:21;;;;;;;7.28;5.30;;;;;;;;;;5024360;28;20041;-73
2022/11/19 04:05:47;;;;;;;6.15;5.00;;;;;;;;;;5057066;28;20051;-73
2022/11/19 04:08:13;;;;;;;6.05;5.10;;;;;;;;;;5058247;28;20144;-72
2022/11/19 04:10:39;;;;;;;7.47;5.03;;;;;;;;;;5060975;28;20131;-73
2022/11/19 04:13:05;;;;;;;6.57;5.68;;;;;;;;;;5058499;28;20041;-73
2022/11/19 04:15:31;;;;;;;5.93;5.15;;;;;;;;;;5042543;28;20044;-73
2022/11/19 04:17:57;;;;;;;6.00;5.20;;;;;;;;;;5042367;28;20923;-72
2022/11/19 04:20:23;;;;;;;5.72;4.90;;;;;;;;;;5057376;28;20057;-73
2022/11/19 04:22:55;;;;;;;8.25;5.70;;;;;;;;;;5057362;28;20124;-72
2022/11/19 04:25:21;;;;;;;6.10;5.25;;;;;;;;;;5027343;28;20048;-72
2022/11/19 04:27:47;;;;;;;6.95;5.32;;;;;;;;;;5023881;28;20063;-72
2022/11/19 04:30:14;;;;;;;6.75;5.82;;;;;;;;;;5026556;28;20056;-72
2022/11/19 04:32:40;;;;;;;6.40;5.53;;;;;;;;;;5046751;28;20068;-72
2022/11/19 04:35:06;;;;;;;6.53;5.28;;;;;;;;;;5050053;28;20037;-73
2022/11/19 04:37:32;;;;;;;6.25;4.85;;;;;;;;;;5051383;28;20068;-72
2022/11/19 04:39:59;;;;;;;6.30;5.18;;;;;;;;;;5053255;28;20068;-72
2022/11/19 04:42:25;;;;;;;6.88;5.53;;;;;;;;;;5030299;28;20061;-72
2022/11/19 04:44:51;;;;;;;6.43;5.28;;;;;;;;;;5027180;28;20045;-72
2022/11/19 04:47:17;;;;;;;6.97;4.97;;;;;;;;;;5051229;28;20033;-72
2022/11/19 04:49:43;;;;;;;7.13;5.30;;;;;;;;;;5033822;28;20041;-72
2022/11/19 04:52:09;;;;;;;6.80;5.43;;;;;;;;;;5051723;28;20473;-72
2022/11/19 04:54:35;;;;;;;7.15;5.50;;;;;;;;;;5046096;28;20047;-72
2022/11/19 04:57:01;;;;;;;7.05;5.75;;;;;;;;;;5024760;28;20064;-72
2022/11/19 04:59:27;;;;;;;6.75;5.53;;;;;;;;;;5032853;28;20473;-72
2022/11/19 05:01:53;;;;;;;6.90;5.45;;;;;;;;;;5031223;28;20102;-72
2022/11/19 05:04:19;;;;;;;7.65;5.82;;;;;;;;;;5024753;28;20049;-72
2022/11/19 05:06:45;;;;;;;6.43;5.45;;;;;;;;;;5054156;28;20048;-72
2022/11/19 05:09:11;;;;;;;6.38;4.93;;;;;;;;;;5025445;28;20037;-73
2022/11/19 05:11:37;;;;;;;6.15;5.28;;;;;;;;;;5029625;28;20049;-73
2022/11/19 05:14:03;;;;;;;6.68;5.38;;;;;;;;;;5061896;28;20050;-72
2022/11/19 05:16:32;;;;;;;7.78;5.32;;;;;;;;;;5049836;28;20037;-73
2022/11/19 05:18:58;;;;;;;7.85;5.18;;;;;;;;;;5036943;28;20086;-72
2022/11/19 05:21:24;;;;;;;6.13;5.05;;;;;;;;;;5032787;28;20106;-72
2022/11/19 05:23:53;;;;;;;7.45;5.70;;;;;;;;;;5027739;28;20059;-72
2022/11/19 05:26:19;;;;;;;7.32;5.63;;;;;;;;;;5050836;28;20048;-72
2022/11/19 05:28:45;;;;;;;7.32;5.35;;;;;;;;;;5031328;28;20045;-72
2022/11/19 05:31:11;;;;;;;7.53;5.35;;;;;;;;;;5046690;28;20044;-72
2022/11/19 05:33:37;;;;;;;6.13;5.50;;;;;;;;;;5032458;28;20043;-72
2022/11/19 05:36:03;;;;;;;7.28;5.32;;;;;;;;;;5027424;28;20052;-72
2022/11/19 05:38:29;;;;;;;7.35;5.60;;;;;;;;;;5027673;28;20118;-72
2022/11/19 05:40:55;;;;;;;7.20;5.55;;;;;;;;;;5064489;28;20041;-72
2022/11/19 05:43:21;;;;;;;6.57;5.38;;;;;;;;;;5028142;28;20048;-72
2022/11/19 05:45:47;;;;;;;7.00;5.50;;;;;;;;;;5032000;28;20051;-72
2022/11/19 05:48:13;;;;;;;6.30;5.50;;;;;;;;;;5029570;28;20044;-72
2022/11/19 05:50:41;;;;;;;6.00;5.20;;;;;;;;;;5031581;28;20049;-72
2022/11/19 05:53:07;;;;;;;6.95;5.07;;;;;;;;;;5046862;28;20052;-72
2022/11/19 05:55:33;;;;;;;9.10;6.07;;;;;;;;;;5048853;28;20435;-72
2022/11/19 05:58:02;;;;;;;6.88;5.20;;;;;;;;;;5044568;28;20064;-72
2022/11/19 06:00:28;;;;;;;6.65;5.20;;;;;;;;;;5047038;28;20043;-72
2022/11/19 06:02:54;;;;;;;8.50;5.75;;;;;;;;;;5027853;28;20103;-72
2022/11/19 06:05:23;;;;;;;6.38;4.85;;;;;;;;;;5048361;28;20052;-72
2022/11/19 06:07:49;;;;;;;6.28;5.45;;;;;;;;;;5029312;28;20405;-73
2022/11/19 06:10:15;;;;;;;7.10;6.40;;;;;;;;;;5048621;28;20428;-72
2022/11/19 06:12:41;;;;;;;6.15;5.03;;;;;;;;;;5027332;28;20466;-72
2022/11/19 06:15:08;;;;;;;7.88;5.40;;;;;;;;;;5029692;28;20390;-72
2022/11/19 06:17:34;;;;;;;6.85;4.90;;;;;;;;;;5056251;28;20162;-72
2022/11/19 06:20:00;;;;;;;6.28;5.43;;;;;;;;;;5045021;28;20131;-72
2022/11/19 06:22:26;;;;;;;5.30;4.78;;;;;;;;;;5059884;28;20064;-72
2022/11/19 06:24:52;;;;;;;6.55;5.22;;;;;;;;;;5024633;28;20044;-72
2022/11/19 06:27:18;;;;;;;6.72;5.00;;;;;;;;;;5043757;28;20049;-72
2022/11/19 06:29:44;;;;;;;6.55;4.78;;;;;;;;;;5028147;28;20102;-72
2022/11/19 06:32:10;;;;;;;6.93;5.32;;;;;;;;;;5049434;28;20044;-72
2022/11/19 06:34:36;;;;;;;8.80;6.00;;;;;;;;;;5046815;28;20072;-72
2022/11/19 06:37:02;;;;;;;7.35;5.00;;;;;;;;;;5042918;28;20049;-73
2022/11/19 06:39:28;;;;;;;6.13;5.43;;;;;;;;;;5028656;28;20519;-72
2022/11/19 06:42:34;;;;;;;7.10;5.57;;;;;;;;;;5030348;28;20045;-72
2022/11/19 06:44:40;;;;;;;5.25;4.68;;;;;;;;;;5063269;28;20088;-72
2022/11/19 06:47:06;;;;;;;5.88;4.97;;;;;;;;;;5030258;28;20507;-72
2022/11/19 06:49:32;;;;;;;5.47;4.88;;;;;;;;;;5049366;28;20076;-72
2022/11/19 06:51:58;;;;;;;6.72;5.40;;;;;;;;;;5030619;28;20147;-72
2022/11/19 06:54:24;;;;;;;6.75;5.20;;;;;;;;;;5055536;28;20396;-73
2022/11/19 06:56:50;;;;;;;7.65;5.38;;;13.80;99.90;;;;;;5047890;28;20060;-73
2022/11/19 06:59:15;;;;;;;6.50;5.20;;;0.80;99.90;;;;;;5062765;28;20110;-72
2022/11/19 07:01:44;;;;;;;5.90;4.75;;;0.50;99.90;;;;;;5046121;28;20081;-73
2022/11/19 07:04:10;;;;;;;6.03;5.43;;;0.40;99.90;;;;;;5051726;28;20056;-72
2022/11/19 07:06:36;;;;;;;7.18;5.22;;;0.30;99.90;;;;;;5021986;28;20043;-72
2022/11/19 07:09:04;;;;;;;6.25;4.88;;;0.30;99.90;;;;;;5023752;28;20049;-73
2022/11/19 07:11:29;;;;;;;6.10;5.15;;;0.30;99.90;;;;;;5023979;28;20080;-73
2022/11/19 07:13:56;;;;;;;7.50;5.40;;;0.20;99.90;;;;;;5025979;28;20516;-72
2022/11/19 07:16:22;;;;;;;7.50;6.07;;;0.30;99.90;;;;;;5025302;28;20087;-73
2022/11/19 07:18:48;;;;;;;7.20;5.30;;;0.20;99.90;;;;;;5057750;28;20042;-72
2022/11/19 07:21:14;;;;;;;6.85;5.00;;;0.20;99.90;;;;;;5025913;28;20044;-73
2022/11/19 07:23:39;;;;;;;5.65;5.05;;;0.20;99.90;;;;;;5043388;28;20431;-72
2022/11/19 07:26:05;;;;;;;8.05;5.93;;;0.20;99.90;;;;;;5057953;28;20049;-73
2022/11/19 07:28:32;;;;;;;6.75;5.20;;;0.20;99.90;;;;;;5027213;28;20048;-73
2022/11/19 07:30:58;;;;;;;7.07;5.32;;;0.30;99.90;;;;;;5026604;28;20485;-73
2022/11/19 07:33:23;;;;;;;6.03;4.80;;;0.20;99.90;;;;;;5029699;28;20052;-73
2022/11/19 07:35:49;;;;;;;6.40;4.68;;;0.20;99.90;;;;;;5025285;28;20083;-72
2022/11/19 07:38:15;;;;;;;7.00;5.75;;;0.20;99.90;;;;;;5045010;28;21951;-72
2022/11/19 07:40:40;;;;;;;5.95;5.15;;;0.10;99.90;;;;;;5051294;28;20051;-72
2022/11/19 07:43:06;;;;;;;7.03;5.35;;;0.20;99.90;;;;;;5029271;28;20045;-72
2022/11/19 07:45:31;;;;;;;6.38;5.10;;;0.10;99.90;;;;;;5031774;28;20503;-73
2022/11/19 07:47:57;;;;;;;6.45;5.22;;;0.10;99.90;;;;;;5034328;28;20037;-73
2022/11/19 07:50:22;;;;;;;6.80;5.43;;;0.20;99.90;;;;;;5025438;28;20044;-73
2022/11/19 07:52:48;;;;;;;7.60;5.88;;;0.30;99.90;;;;;;5025138;28;20053;-73
2022/11/19 07:55:14;;;;;;;6.90;5.35;;;0.20;99.90;;;;;;5040017;28;20158;-73
2022/11/19 07:57:43;;;;;;;6.00;5.07;;;0.20;99.90;;;;;;5043928;28;20094;-72
2022/11/19 08:00:09;;;;;;;6.82;5.10;;;0.20;99.90;;;;;;5056579;28;20443;-73
2022/11/19 08:02:35;;;;;;;7.00;5.32;;;0.30;99.90;;;;;;5026962;28;20481;-73
2022/11/19 08:05:00;;;;;;;7.97;5.18;;;0.30;99.90;;;;;;5041759;28;20041;-73
2022/11/19 08:07:26;;;;;;;6.10;5.07;;;0.30;99.90;;;;;;5044068;28;20460;-73
2022/11/19 08:09:52;;;;;;;7.15;5.13;;;0.40;99.90;;;;;;5023690;28;20139;-73
2022/11/19 08:12:17;;;;;;;6.55;4.85;;;1.20;99.90;;;;;;5024972;28;20052;-72
2022/11/19 08:14:43;;;;;;;7.20;5.32;;;0.40;99.90;;;;;;5041966;28;21736;-72
2022/11/19 08:19:53;;;;;;;6.65;5.43;;;0.40;99.90;;;;;;5042993;28;20044;-73
2022/11/19 08:22:18;;;;;;;4.93;4.00;;;0.40;99.90;;;;;;5025955;28;20048;-73
2022/11/19 08:24:44;;;;;;;6.22;4.78;;;0.50;99.90;;;;;;5041868;28;20496;-73
2022/11/19 08:27:09;;;;;;;6.40;5.25;;;0.50;99.90;;;;;;5045649;28;20041;-73
2022/11/19 08:29:35;;;;;;;6.15;5.47;;;0.50;99.90;;;;;;5024412;28;20041;-73
2022/11/19 08:32:01;;;;;;;9.48;6.38;;;0.40;99.90;;;;;;5049559;28;20049;-73
2022/11/19 08:34:26;;;;;;;7.05;5.47;;;0.40;99.90;;;;;;5030967;28;20052;-73
2022/11/19 08:36:52;;;;;;;7.10;5.60;;;0.40;99.90;;;;;;5030067;28;20500;-72
2022/11/19 08:39:17;;;;;;;6.80;5.45;;;0.50;99.90;;;;;;5033132;28;20044;-73
2022/11/19 08:44:27;;;;;;;7.13;5.68;;;0.60;99.90;;;;;;5064379;28;20056;-73
2022/11/19 08:46:53;;;;;;;7.75;5.70;;;0.70;99.90;;;;;;5031259;28;20072;-73
2022/11/19 08:49:18;;;;;;;6.50;5.68;;;0.60;99.90;;;;;;5033320;28;20436;-73
2022/11/19 08:51:44;;;;;;;7.82;6.05;;;0.60;99.90;;;;;;5031352;28;20044;-73
2022/11/19 08:54:11;;;;;;;7.50;5.30;;;0.50;99.90;;;;;;5030026;28;20057;-73
2022/11/19 08:56:37;;;;;;;7.82;5.80;;;0.70;99.90;;;;;;5034163;28;20049;-73
2022/11/19 08:59:02;;;;;;;7.72;5.70;;;0.70;99.90;;;;;;5030119;28;20071;-73
2022/11/19 09:01:28;;;;;;;7.30;5.50;;;0.70;99.90;;;;;;5049208;28;20044;-73
2022/11/19 09:03:57;;;;;;;7.22;5.78;;;0.70;99.90;;;;;;5047165;28;20061;-73
2022/11/19 09:06:23;;;;;;;6.82;5.13;;;0.80;99.90;;;;;;5046601;28;20059;-74
2022/11/19 09:08:48;;;;;;;7.30;5.63;;;0.80;99.90;;;;;;5033575;28;20041;-73
2022/11/19 09:11:16;;;;;;;7.07;5.82;;;1.60;99.90;;;;;;5031217;28;20094;-73
2022/11/19 09:13:42;;;;;;;6.85;5.45;;;0.80;99.90;;;;;;5049794;28;20041;-73
2022/11/19 09:16:09;;;;;;;6.20;5.07;;;;;;;;;;5029707;28;20098;-73
2022/11/19 09:18:38;;;;;;;6.25;4.95;;;;;;;;;;5056547;28;20053;-73
2022/11/19 09:21:05;;;;;;;6.28;5.15;;;;;;;;;;5033286;28;20053;-73
2022/11/19 09:23:31;;;;;;;8.10;5.35;;;;;;;;;;5033132;28;20049;-72
2022/11/19 09:26:02;;;;;;;6.75;5.10;;;;;;;;;;5033290;28;20040;-72
2022/11/19 09:28:28;;;;;;;7.70;5.75;;;;;;;;;;5049662;28;20046;-72
2022/11/19 09:31:02;;;;;;;7.20;5.65;;;;;;;;;;5034340;28;20041;-72
2022/11/19 09:33:28;;;;;;;;;;;;;;;;;;5033989;28;20079;-73
2022/11/19 09:35:54;;;;;;;9.27;5.78;;;;;;;;;;5056663;28;19921;-72
2022/11/19 09:38:20;;;;;;;7.25;5.43;;;;;;;;;;5029742;28;20107;-73
2022/11/19 09:40:48;;;;;;;6.95;5.93;;;;;;;;;;5048382;28;20069;-73
2022/11/19 09:43:27;;;;;;;7.63;5.40;;;;;;;;;;5030037;28;20371;-73
2022/11/19 09:45:53;;;;;;;7.90;5.72;;;;;;;;;;5062738;28;20122;-73
2022/11/19 09:48:33;;;;;;;8.57;6.50;;;;;;;;;;5031371;28;20555;-73
2022/11/19 09:51:07;;;;;;;7.18;5.70;;;;;;;;;;5060545;28;20036;-73
2022/11/19 09:53:42;;;;;;;6.78;5.78;;;;;;;;;;5033071;28;20056;-73
2022/11/19 09:56:10;;;;;;;7.07;5.75;;;;;;;;;;5026223;28;20037;-73
2022/11/19 09:58:38;;;;;;;8.10;5.88;;;;;;;;;;5054170;28;20037;-73
2022/11/19 10:01:05;;;;;;;8.02;5.75;;;;;;;;;;5059929;28;20511;-73
2022/11/19 10:03:31;;;;;;;7.00;5.50;;;;;;;;;;5029590;28;20095;-73
2022/11/19 10:06:06;;;;;;;7.78;5.80;;;;;;;;;;5030233;28;20068;-72
2022/11/19 10:08:45;;;;;;;7.63;5.40;;;;;;;;;;5048520;28;20088;-72
2022/11/19 10:11:28;;;;;;;6.85;5.70;;;;;;;;;;5045407;28;20052;-73
2022/11/19 10:14:29;;;;;;;6.95;5.75;;;;;;;;;;5043685;28;20049;-73
2022/11/19 10:17:25;;;;;;;8.25;6.05;;;;;;;;;;4947088;28;20043;-72
2022/11/19 10:19:57;;;;;;;6.78;5.70;;;;;;;;;;5003561;28;20477;-74
2022/11/19 10:22:43;;;;;;;6.68;5.28;;;;;;;;;;5059932;28;20088;-74
2022/11/19 10:25:16;;;;;;;7.72;6.00;;;;;;;;;;5028267;28;20052;-74
2022/11/19 10:27:50;;;;;;;6.95;5.10;;;;;;;;;;5027517;28;20045;-74
2022/11/19 10:30:19;;;;;;;7.30;5.57;;;;;;;;;;5045942;28;20492;-74
2022/11/19 10:33:00;;;;;;;7.18;5.63;;;;;;;;;;5027842;28;20448;-74
2022/11/19 10:35:28;;;;;;;8.88;5.80;;;;;;;;;;5024510;28;20110;-74
2022/11/19 10:37:58;;;;;;;6.72;5.55;;;;;;;;;;5054345;28;20618;-74
2022/11/19 10:40:27;;;;;;;8.20;5.82;;;;;;;;;;5027180;28;20049;-73
2022/11/19 10:42:56;;;;;;;7.65;5.88;;;;;;;;;;5061996;28;20087;-74
2022/11/19 10:45:24;;;;;;;7.43;5.97;;;;;;;;;;5064184;28;20068;-74
2022/11/19 10:48:09;;;;;;;6.53;5.10;;;;;;;;;;5043995;28;20378;-74
2022/11/19 10:50:35;;;;;;;7.35;6.00;;;;;;;;;;5030015;28;20102;-74
2022/11/19 10:53:04;;;;;;;7.03;5.25;;;;;;;;;;5022305;28;20049;-74
2022/11/19 10:55:33;;;;;;;7.40;5.63;;;;;;;;;;5024263;28;20125;-73
2022/11/19 10:58:13;;;;;;;8.15;6.50;;;;;;;;;;5026109;28;20063;-74
2022/11/19 11:00:40;;;;;;;7.07;6.13;;;;;;;;;;5046496;28;20052;-74
2022/11/19 11:03:13;;;;;;;7.95;6.00;;;;;;;;;;5028120;28;20068;-74
2022/11/19 11:05:56;;;;;;;6.90;5.15;;;;;;;;;;5028445;28;20056;-74
2022/11/19 11:08:23;;;;;;;9.27;5.82;;;;;;;;;;5046181;28;20045;-73
2022/11/19 11:10:50;;;;;;;8.65;5.97;;;;;;;;;;5048494;28;20091;-74
2022/11/19 11:16:20;;;;;;;5.88;4.93;;;;;;;;;;5061799;28;20053;-73
2022/11/19 11:18:47;;;;;;;6.88;5.57;;;;;;;;;;5030848;28;20095;-73
2022/11/19 11:21:24;;;;;;;7.05;5.70;;;;;;;;;;5042870;28;20136;-73
2022/11/19 11:23:52;;;;;;;8.98;5.70;;;;;;;;;;5028654;28;20075;-74
2022/11/19 11:26:20;;;;;;;7.60;5.68;;;;;;;;;;5022686;28;20059;-74
2022/11/19 11:28:54;;;;;;;6.57;5.25;;;;;;;;;;5024700;28;20119;-74
2022/11/19 11:31:20;;;;;;;;;;;;;;;;;;5046627;28;20137;-74
2022/11/19 11:33:56;;;;;;;8.02;5.90;;;;;;;;;;5027942;28;19920;-74
2022/11/19 11:36:26;;;;;;;6.18;5.30;;;;;;;;;;5016914;28;20416;-74
2022/11/19 11:38:54;;;;;;;7.65;5.80;;;;;;;;;;5026287;28;20044;-74
2022/11/19 11:41:24;;;;;;;5.95;5.35;;;;;;;;;;5025446;28;20107;-74
2022/11/19 11:44:10;;;;;;;6.97;5.13;;;;;;;;;;5025125;28;20099;-73
2022/11/19 11:46:42;;;;;;;6.60;5.05;;;;;;;;;;5014658;28;20041;-73
2022/11/19 11:49:28;;;;;;;6.63;5.10;;;;;;;;;;5026520;28;20140;-73
2022/11/19 11:52:14;;;;;;;5.78;4.82;;;;;;;;;;5018591;28;20050;-74
2022/11/19 11:55:04;;;;;;;5.80;5.00;;;;;;;;;;5025900;28;20038;-73
2022/11/19 11:57:35;;;;;;;5.88;5.15;;;;;;;;;;5027252;28;20145;-74
2022/11/19 12:00:02;;;;;;;7.35;5.43;;;;;;;;;;5026537;28;20049;-74
2022/11/19 12:02:29;;;;;;;6.32;5.05;;;;;;;;;;5026948;28;20183;-75
2022/11/19 12:04:56;;;;;;;5.90;4.70;;;;;;;;;;5027303;28;20621;-73
2022/11/19 12:07:54;;;;;;;6.47;5.18;;;;;;;;;;5027478;28;20037;-73
2022/11/19 12:10:39;;;;;;;5.65;4.88;;;;;;;;;;5028656;28;20133;-74
2022/11/19 12:13:20;;;;;;;6.57;5.20;;;;;;;;;;5030817;28;20042;-74
2022/11/19 12:15:56;;;;;;;5.57;4.60;;;;;;;;;;5028679;28;20052;-74
2022/11/19 12:18:24;;;;;;;5.95;4.78;;;;;;;;;;5027762;28;20081;-73
2022/11/19 12:21:00;;;;;;;6.05;3.97;;;;;;;;;;5029389;28;20128;-72
2022/11/19 12:23:45;;;;;;;5.15;4.13;;;;;;;;;;5027240;28;20041;-74
2022/11/19 12:26:40;;;;;;;5.13;4.53;;;;;;;;;;5029293;28;20049;-74
2022/11/19 12:29:26;;;;;;;5.57;4.38;;;;;;;;;;4973279;28;20046;-73
2022/11/19 12:32:01;;;;;;;5.68;4.85;;;;;;;;;;5026985;28;20120;-71
2022/11/19 12:34:33;;;;;;;5.22;4.15;;;;;;;;;;5029290;28;20041;-71
2022/11/19 12:36:59;;;;;;;5.63;4.40;;;;;;;;;;5042941;28;20056;-73
2022/11/19 12:39:45;;;;;;;5.25;4.68;;;;;;;;;;5047765;28;20048;-73
2022/11/19 12:42:11;;;;;;;5.32;4.68;;;;;;;;;;5032149;28;20492;-73
2022/11/19 12:44:53;;;;;;;5.68;4.72;;;;;;;;;;5031334;28;20051;-73
2022/11/19 12:47:19;;;;;;;5.82;4.78;;;;;;;;;;5048957;28;20068;-73
2022/11/19 12:49:49;;;;;;;7.22;4.35;;;;;;;;;;5046755;28;20476;-73
2022/11/19 12:52:34;;;;;;;5.10;4.60;;;;;;;;;;5030568;28;20485;-73
2022/11/19 12:55:08;;;;;;;5.15;4.65;;;;;;;;;;5031474;28;20090;-73
2022/11/19 12:57:43;;;;;;;5.90;4.80;;;;;;;;;;5032487;28;20049;-73
2022/11/19 13:00:19;;;;;;;4.82;4.18;;;;;;;;;;5028676;28;20053;-73
2022/11/19 13:03:03;;;;;;;4.75;4.35;;;;;;;;;;5031220;28;20116;-74
2022/11/19 13:05:37;;;;;;;5.53;4.70;;;;;;;;;;5028703;28;20056;-73
2022/11/19 13:08:23;;;;;;;4.93;4.43;;;;;;;;;;5047920;28;20374;-73
2022/11/19 13:10:52;;;;;;;4.93;4.43;;;;;;;;;;5047820;28;20140;-74
2022/11/19 13:13:20;;;;;;;5.25;4.70;;;;;;;;;;5029771;28;20045;-74
2022/11/19 13:15:58;;;;;;;4.70;4.28;;;;;;;;;;5046665;28;20049;-74
2022/11/19 13:18:28;;;;;;;6.20;4.47;;;;;;;;;;5031134;28;20045;-74
2022/11/19 13:21:00;;;;;;;4.57;4.18;;;;;;;;;;5046181;28;20712;-74
2022/11/19 13:23:29;;;;;;;4.47;4.07;;;;;;;;;;5044855;28;22359;-74
2022/11/19 13:26:01;;;;;;;5.00;4.50;;;;;;;;;;5049162;28;20055;-73
2022/11/19 13:28:31;;;;;;;4.88;4.38;;;;;;;;;;5042566;28;20052;-73
2022/11/19 13:31:00;;;;;;;4.38;3.97;;;;;;;;;;5044272;28;20176;-73
2022/11/19 13:33:46;;;;;;;4.97;4.47;;;;;;;;;;5041334;28;20045;-74
2022/11/19 13:36:24;;;;;;;4.85;4.35;;;;;;;;;;5035367;28;20456;-76
2022/11/19 13:38:56;;;;;;;5.90;4.35;;;;;;;;;;5051518;28;20120;-75
2022/11/19 13:41:29;;;;;;;4.68;4.28;;;;;;;;;;5051903;28;20159;-74
2022/11/19 13:46:43;;;;;;;4.72;4.22;;;;;;;;;;5051447;28;20056;-74
2022/11/19 13:49:12;;;;;;;4.80;3.88;;;;;;;;;;5026085;28;20447;-73
2022/11/19 13:51:39;;;;;;;4.38;3.65;;;;;;;;;;5025945;28;20064;-75
2022/11/19 13:54:07;;;;;;;5.15;4.13;;;;;;;;;;5030822;28;20045;-76
2022/11/19 13:56:44;;;;;;;5.00;3.97;;;;;;;;;;5024659;28;20128;-76
2022/11/19 13:59:30;;;;;;;4.57;4.15;;;;;;;;;;5033246;28;20125;-75
2022/11/19 14:02:00;;;;;;;4.70;4.20;;;;;;;;;;5033060;28;20226;-76
2022/11/19 14:04:44;;;;;;;5.57;4.47;;;;;;;;;;5047572;28;21209;-76
2022/11/19 14:07:16;;;;;;;5.53;4.38;;;;;;;;;;5046721;28;20041;-75
2022/11/19 14:10:07;;;;;;;4.53;4.00;;;;;;;;;;5028224;28;20041;-75
2022/11/19 14:12:33;;;;;;;4.53;4.13;;;;;;;;;;5025114;28;20076;-75
2022/11/19 14:27:22;;;;;;;4.82;4.22;;;;;;;;;;5047288;28;20489;-77
2022/11/19 14:29:48;;;;;;;5.22;4.68;;;0.80;99.90;;;;;;5030213;28;20584;-73
2022/11/19 14:32:14;;;;;;;5.00;4.50;;;;;;;;;;5046108;28;20135;-72
2022/11/19 14:34:42;;;;;;;4.55;3.95;;;;;;;;;;5030380;28;20045;-75
2022/11/19 14:37:20;;;;;;;6.07;4.50;;;;;;;;;;5031445;28;20056;-74
2022/11/19 14:40:06;;;;;;;4.88;4.38;;;10.20;99.90;;;;;;5031543;28;20053;-73
2022/11/19 14:42:32;;;;;;;6.78;5.53;;;;;;;;;;5048904;28;20045;-75
2022/11/19 14:45:04;;;;;;;7.20;5.40;;;;;;;;;;5049590;28;20064;-76
2022/11/19 14:47:40;;;;;;;5.65;4.25;;;;;;;;;;5029559;28;20531;-73
2022/11/19 14:50:07;;;;;;;5.28;4.63;;;;;;;;;;5028315;28;20053;-74
2022/11/19 14:52:54;;;;;;;5.20;4.68;;;;;;;;;;5028329;28;20049;-75
2022/11/19 14:55:24;;;;;;;5.25;4.40;;;;;;;;;;5060471;28;20049;-74
2022/11/19 14:57:56;;;;;;;5.03;4.53;;;;;;;;;;5029567;28;20052;-74
2022/11/19 15:00:22;;;;;;;5.10;4.57;;;;;;;;;;5028032;28;20440;-74
2022/11/19 15:02:51;;;;;;;28.80;20.65;;;;;;;;;;5033501;28;20103;-72
2022/11/19 15:05:28;;;;;;;9.98;7.28;;;;;;;;;;5044966;28;20044;-74
2022/11/19 15:08:20;;;;;;;5.22;4.53;;;;;;;;;;5027866;28;20435;-74
2022/11/19 15:10:48;;;;;;;5.47;4.57;;;;;;;;;;5022619;28;20099;-73